Terminal Aerodrome Forecast
Issued by NWS Twin Cities, MN

Home | Current Version | Previous Version | Text Only | Print | Product List | Glossary On
Versions: 1 2 3 4 5 6 7 8 9 10 11 12 13 14 15 16 17 18 19 20 21
174
FTUS43 KMPX 200520
TAFSTC
TAF
KSTC 200520Z 2006/2106 13005KT 6SM BR SCT008 OVC012
     FM200800 13007KT 4SM BR VCSH BKN008
     FM201000 13006KT 1SM BR VCSH OVC005
     FM201200 13005KT 1/2SM -DZ FG VV002
     FM201500 13004KT 2SM BR OVC004
     FM201800 13005KT 4SM BR OVC005
     FM210000 11004KT 3SM -DZ OVC003=

USA.gov is the U.S. government's official web portal to all federal, state and local government web resources and services.